Terminal Aerodrome Forecast
Issued by NWS Cleveland, OH

Home | Current Version | Previous Version | Graphics & Text | Print | Product List | Glossary On
Versions: 1 2 3 4 5 6 7 8 9 10 11 12 13 14
000
FTUS41 KCLE 062335
TAFTOL
TAF
KTOL 062335Z 0700/0724 06008KT 5SM BR OVC007
     FM070100 27012KT P6SM OVC015
     FM070500 27010KT P6SM BKN035
     FM071200 25012KT P6SM SCT035 BKN150=

USA.gov is the U.S. government's official web portal to all federal, state and local government web resources and services.